AZA1663 LIRF-LIRP
Flight info
| Callsign | AZA1663 |
|---|---|
| Flight time | 0h 41m |
| Altitude | 28000 |
| Route | GILIO M729 ELB |
| Aircraft | MD82/M-SDFGIRWY/S |
Departure
| Time | 2026-05-06 07:39 |
|---|---|
| Airport | Rome–Fiumicino Leonardo da Vinci International Airport (LIRF) |
Arrival
| Time | 2026-05-06 08:20 |
|---|---|
| Airport | Pisa International Airport (LIRP) |
| Time | Latitude | Longitude | Altitude | Speed | Heading |
|---|---|---|---|---|---|
| 2026-05-06 06:40 | 41.79759 | 12.25493 | 15 ft | 0 kts | 115° |
| 2026-05-06 07:25 | 41.79765 | 12.25476 | 18 ft | 2 kts | 115° |
| 2026-05-06 07:25 | 41.79772 | 12.25449 | 16 ft | 4 kts | 85° |
| 2026-05-06 07:25 | 41.79763 | 12.25428 | 19 ft | 4 kts | 30° |
| 2026-05-06 07:26 | 41.79765 | 12.25428 | 19 ft | 4 kts | 25° |
| 2026-05-06 07:26 | 41.79778 | 12.25437 | 17 ft | 1 kts | 25° |
| 2026-05-06 07:28 | 41.79781 | 12.25438 | 16 ft | 0 kts | 25° |
| 2026-05-06 07:29 | 41.79789 | 12.25443 | 17 ft | 3 kts | 25° |
| 2026-05-06 07:29 | 41.79797 | 12.25449 | 16 ft | 1 kts | 25° |
| 2026-05-06 07:29 | 41.79809 | 12.25456 | 15 ft | 3 kts | 25° |
| 2026-05-06 07:29 | 41.79832 | 12.25470 | 15 ft | 4 kts | 25° |
| 2026-05-06 07:30 | 41.79864 | 12.25491 | 16 ft | 6 kts | 25° |
| 2026-05-06 07:30 | 41.79887 | 12.25504 | 15 ft | 4 kts | 25° |
| 2026-05-06 07:30 | 41.79915 | 12.25522 | 15 ft | 5 kts | 25° |
| 2026-05-06 07:30 | 41.79952 | 12.25545 | 16 ft | 4 kts | 25° |
| 2026-05-06 07:31 | 41.79981 | 12.25564 | 16 ft | 5 kts | 25° |
| 2026-05-06 07:31 | 41.79998 | 12.25598 | 15 ft | 4 kts | 95° |
| 2026-05-06 07:31 | 41.79989 | 12.25641 | 15 ft | 5 kts | 112° |
| 2026-05-06 07:31 | 41.79972 | 12.25690 | 15 ft | 6 kts | 115° |
| 2026-05-06 07:32 | 41.79952 | 12.25746 | 15 ft | 7 kts | 116° |
| 2026-05-06 07:32 | 41.79936 | 12.25792 | 16 ft | 5 kts | 115° |
| 2026-05-06 07:32 | 41.79925 | 12.25835 | 16 ft | 2 kts | 84° |
| 2026-05-06 07:32 | 41.79929 | 12.25845 | 15 ft | 2 kts | 66° |
| 2026-05-06 07:33 | 41.79938 | 12.25861 | 15 ft | 3 kts | 43° |
| 2026-05-06 07:33 | 41.79958 | 12.25878 | 15 ft | 4 kts | 26° |
| 2026-05-06 07:33 | 41.79988 | 12.25895 | 17 ft | 5 kts | 24° |
| 2026-05-06 07:33 | 41.80027 | 12.25918 | 15 ft | 7 kts | 24° |
| 2026-05-06 07:34 | 41.80075 | 12.25947 | 17 ft | 8 kts | 25° |
| 2026-05-06 07:34 | 41.80130 | 12.25982 | 17 ft | 9 kts | 25° |
| 2026-05-06 07:34 | 41.80194 | 12.26022 | 15 ft | 11 kts | 25° |
| 2026-05-06 07:34 | 41.80265 | 12.26065 | 16 ft | 12 kts | 25° |
| 2026-05-06 07:35 | 41.80342 | 12.26113 | 15 ft | 13 kts | 25° |
| 2026-05-06 07:35 | 41.80420 | 12.26161 | 16 ft | 12 kts | 22° |
| 2026-05-06 07:35 | 41.80501 | 12.26197 | 17 ft | 12 kts | 37° |
| 2026-05-06 07:35 | 41.80543 | 12.26293 | 17 ft | 12 kts | 69° |
| 2026-05-06 07:36 | 41.80574 | 12.26403 | 16 ft | 13 kts | 69° |
| 2026-05-06 07:36 | 41.80605 | 12.26519 | 18 ft | 14 kts | 70° |
| 2026-05-06 07:36 | 41.80637 | 12.26635 | 18 ft | 10 kts | 70° |
| 2026-05-06 07:36 | 41.80661 | 12.26720 | 16 ft | 10 kts | 70° |
| 2026-05-06 07:37 | 41.80687 | 12.26817 | 15 ft | 12 kts | 70° |
| 2026-05-06 07:37 | 41.80714 | 12.26915 | 15 ft | 11 kts | 70° |
| 2026-05-06 07:37 | 41.80742 | 12.27015 | 15 ft | 12 kts | 70° |
| 2026-05-06 07:37 | 41.80777 | 12.27116 | 14 ft | 12 kts | 46° |
| 2026-05-06 07:38 | 41.80850 | 12.27119 | 13 ft | 12 kts | 346° |
| 2026-05-06 07:38 | 41.80930 | 12.27085 | 14 ft | 13 kts | 340° |
| 2026-05-06 07:38 | 41.80978 | 12.27008 | 14 ft | 11 kts | 262° |
| 2026-05-06 07:38 | 41.80932 | 12.26837 | 15 ft | 34 kts | 250° |
| 2026-05-06 07:39 | 41.80780 | 12.26281 | 19 ft | 95 kts | 250° |
| 2026-05-06 07:39 | 41.80469 | 12.25166 | 18 ft | 158 kts | 251° |
| 2026-05-06 07:39 | 41.80099 | 12.23639 | 295 ft | 187 kts | 250° |
| 2026-05-06 07:39 | 41.79719 | 12.22004 | 1192 ft | 180 kts | 246° |
| 2026-05-06 07:40 | 41.79332 | 12.20452 | 2142 ft | 175 kts | 253° |
| 2026-05-06 07:40 | 41.79189 | 12.18878 | 3080 ft | 163 kts | 259° |
| 2026-05-06 07:40 | 41.79140 | 12.17887 | 3590 ft | 162 kts | 262° |
| 2026-05-06 07:40 | 41.79106 | 12.16383 | 4298 ft | 159 kts | 264° |
| 2026-05-06 07:41 | 41.79088 | 12.14895 | 4932 ft | 163 kts | 264° |
| 2026-05-06 07:41 | 41.79074 | 12.13352 | 5497 ft | 168 kts | 265° |
| 2026-05-06 07:41 | 41.79053 | 12.11760 | 6083 ft | 174 kts | 266° |
| 2026-05-06 07:41 | 41.79014 | 12.10091 | 6592 ft | 185 kts | 266° |
| 2026-05-06 07:42 | 41.78999 | 12.08265 | 6890 ft | 207 kts | 268° |
| 2026-05-06 07:42 | 41.79025 | 12.06246 | 7203 ft | 226 kts | 269° |
| 2026-05-06 07:42 | 41.79050 | 12.03996 | 7450 ft | 256 kts | 268° |
| 2026-05-06 07:42 | 41.79058 | 12.01575 | 8086 ft | 261 kts | 268° |
| 2026-05-06 07:43 | 41.79052 | 11.99107 | 8705 ft | 268 kts | 268° |
| 2026-05-06 07:43 | 41.79046 | 11.96615 | 9443 ft | 266 kts | 268° |
| 2026-05-06 07:43 | 41.79057 | 11.94139 | 10052 ft | 266 kts | 268° |
| 2026-05-06 07:43 | 41.79058 | 11.91589 | 10233 ft | 282 kts | 268° |
| 2026-05-06 07:44 | 41.79048 | 11.88894 | 10395 ft | 296 kts | 268° |
| 2026-05-06 07:44 | 41.79035 | 11.86079 | 10548 ft | 308 kts | 268° |
| 2026-05-06 07:44 | 41.79363 | 11.83184 | 10681 ft | 325 kts | 289° |
| 2026-05-06 07:44 | 41.80427 | 11.80458 | 10967 ft | 335 kts | 297° |
| 2026-05-06 07:45 | 41.81654 | 11.77784 | 11362 ft | 338 kts | 298° |
| 2026-05-06 07:45 | 41.82901 | 11.75104 | 11813 ft | 341 kts | 298° |
| 2026-05-06 07:45 | 41.84172 | 11.72385 | 12393 ft | 344 kts | 298° |
| 2026-05-06 07:45 | 41.85442 | 11.69658 | 13098 ft | 345 kts | 298° |
| 2026-05-06 07:46 | 41.86709 | 11.66897 | 13740 ft | 349 kts | 297° |
| 2026-05-06 07:46 | 41.87969 | 11.64105 | 14323 ft | 351 kts | 297° |
| 2026-05-06 07:46 | 41.89206 | 11.61324 | 14859 ft | 353 kts | 297° |
| 2026-05-06 07:46 | 41.90554 | 11.58535 | 15361 ft | 360 kts | 305° |
| 2026-05-06 07:47 | 41.92226 | 11.55986 | 15914 ft | 365 kts | 309° |
| 2026-05-06 07:47 | 41.93994 | 11.53517 | 16486 ft | 368 kts | 310° |
| 2026-05-06 07:47 | 41.95792 | 11.51042 | 17009 ft | 372 kts | 310° |
| 2026-05-06 07:47 | 41.97609 | 11.48542 | 17538 ft | 376 kts | 310° |
| 2026-05-06 07:48 | 41.99435 | 11.46011 | 18061 ft | 379 kts | 310° |
| 2026-05-06 07:48 | 42.01266 | 11.43447 | 18578 ft | 381 kts | 309° |
| 2026-05-06 07:48 | 42.03101 | 11.40852 | 19058 ft | 384 kts | 309° |
| 2026-05-06 07:48 | 42.04938 | 11.38234 | 19558 ft | 386 kts | 309° |
| 2026-05-06 07:49 | 42.06790 | 11.35588 | 20013 ft | 390 kts | 309° |
| 2026-05-06 07:49 | 42.08656 | 11.32913 | 20485 ft | 393 kts | 309° |
| 2026-05-06 07:49 | 42.10533 | 11.30220 | 20988 ft | 396 kts | 309° |
| 2026-05-06 07:49 | 42.12431 | 11.27502 | 21472 ft | 399 kts | 309° |
| 2026-05-06 07:50 | 42.14338 | 11.24771 | 21946 ft | 402 kts | 309° |
| 2026-05-06 07:50 | 42.16264 | 11.22012 | 22398 ft | 406 kts | 309° |
| 2026-05-06 07:50 | 42.18180 | 11.19266 | 22890 ft | 408 kts | 309° |
| 2026-05-06 07:50 | 42.20130 | 11.16467 | 23350 ft | 411 kts | 308° |
| 2026-05-06 07:51 | 42.22088 | 11.13640 | 23738 ft | 414 kts | 308° |
| 2026-05-06 07:51 | 42.24059 | 11.10789 | 24144 ft | 416 kts | 308° |
| 2026-05-06 07:51 | 42.26039 | 11.07933 | 24568 ft | 417 kts | 308° |
| 2026-05-06 07:51 | 42.28033 | 11.05061 | 24946 ft | 420 kts | 308° |
| 2026-05-06 07:52 | 42.30038 | 11.02177 | 25324 ft | 422 kts | 308° |
| 2026-05-06 07:52 | 42.32059 | 10.99272 | 25688 ft | 426 kts | 308° |
| 2026-05-06 07:52 | 42.34093 | 10.96346 | 26075 ft | 428 kts | 308° |
| 2026-05-06 07:52 | 42.36135 | 10.93408 | 26473 ft | 429 kts | 308° |
| 2026-05-06 07:53 | 42.38181 | 10.90458 | 26884 ft | 430 kts | 307° |
| 2026-05-06 07:53 | 42.40213 | 10.87507 | 27414 ft | 428 kts | 307° |
| 2026-05-06 07:53 | 42.42246 | 10.84545 | 27694 ft | 431 kts | 307° |
| 2026-05-06 07:53 | 42.44290 | 10.81568 | 27824 ft | 432 kts | 307° |
| 2026-05-06 07:54 | 42.46330 | 10.78605 | 27884 ft | 428 kts | 307° |
| 2026-05-06 07:54 | 42.48356 | 10.75667 | 27917 ft | 425 kts | 307° |
| 2026-05-06 07:54 | 42.50366 | 10.72749 | 27703 ft | 419 kts | 307° |
| 2026-05-06 07:54 | 42.52336 | 10.69885 | 27077 ft | 414 kts | 307° |
| 2026-05-06 07:55 | 42.54289 | 10.67035 | 26336 ft | 411 kts | 307° |
| 2026-05-06 07:55 | 42.56229 | 10.64197 | 25628 ft | 409 kts | 307° |
| 2026-05-06 07:55 | 42.58135 | 10.61408 | 24980 ft | 406 kts | 307° |
| 2026-05-06 07:55 | 42.60047 | 10.58613 | 24392 ft | 402 kts | 308° |
| 2026-05-06 07:56 | 42.61943 | 10.55845 | 23765 ft | 399 kts | 308° |
| 2026-05-06 07:56 | 42.63832 | 10.53086 | 23047 ft | 398 kts | 308° |
| 2026-05-06 07:56 | 42.65705 | 10.50350 | 22429 ft | 393 kts | 308° |
| 2026-05-06 07:56 | 42.67551 | 10.47655 | 21828 ft | 387 kts | 308° |
| 2026-05-06 07:57 | 42.69381 | 10.44980 | 21197 ft | 383 kts | 308° |
| 2026-05-06 07:57 | 42.71186 | 10.42339 | 20562 ft | 380 kts | 309° |
| 2026-05-06 07:57 | 42.73259 | 10.40096 | 19927 ft | 387 kts | 328° |
| 2026-05-06 07:57 | 42.75826 | 10.38936 | 19368 ft | 392 kts | 346° |
| 2026-05-06 07:58 | 42.78541 | 10.38482 | 18696 ft | 394 kts | 350° |
| 2026-05-06 07:58 | 42.81271 | 10.38179 | 18063 ft | 393 kts | 351° |
| 2026-05-06 07:58 | 42.83985 | 10.37914 | 17444 ft | 389 kts | 351° |
| 2026-05-06 07:58 | 42.86665 | 10.37655 | 16828 ft | 384 kts | 351° |
| 2026-05-06 07:59 | 42.89315 | 10.37376 | 16200 ft | 380 kts | 351° |
| 2026-05-06 07:59 | 42.91910 | 10.37069 | 15566 ft | 377 kts | 350° |
| 2026-05-06 07:59 | 42.94509 | 10.36733 | 14947 ft | 374 kts | 350° |
| 2026-05-06 07:59 | 42.97086 | 10.36380 | 14352 ft | 370 kts | 349° |
| 2026-05-06 08:00 | 42.99640 | 10.36020 | 13753 ft | 367 kts | 349° |
| 2026-05-06 08:00 | 43.02176 | 10.35657 | 13083 ft | 365 kts | 349° |
| 2026-05-06 08:00 | 43.04687 | 10.35296 | 12483 ft | 361 kts | 349° |
| 2026-05-06 08:00 | 43.07178 | 10.34941 | 11872 ft | 357 kts | 350° |
| 2026-05-06 08:01 | 43.09630 | 10.34595 | 11492 ft | 347 kts | 350° |
| 2026-05-06 08:01 | 43.11971 | 10.34273 | 11359 ft | 330 kts | 350° |
| 2026-05-06 08:01 | 43.14205 | 10.33971 | 11180 ft | 316 kts | 350° |
| 2026-05-06 08:01 | 43.16370 | 10.33675 | 10877 ft | 310 kts | 350° |
| 2026-05-06 08:02 | 43.18500 | 10.33378 | 10576 ft | 303 kts | 350° |
| 2026-05-06 08:02 | 43.20548 | 10.33093 | 10305 ft | 297 kts | 349° |
| 2026-05-06 08:02 | 43.22599 | 10.32803 | 9958 ft | 296 kts | 350° |
| 2026-05-06 08:02 | 43.24644 | 10.32510 | 9556 ft | 295 kts | 350° |
| 2026-05-06 08:03 | 43.26685 | 10.32252 | 9159 ft | 295 kts | 356° |
| 2026-05-06 08:03 | 43.28689 | 10.32814 | 8797 ft | 297 kts | 26° |
| 2026-05-06 08:03 | 43.30395 | 10.34321 | 8635 ft | 287 kts | 36° |
| 2026-05-06 08:03 | 43.32001 | 10.35912 | 8395 ft | 285 kts | 26° |
| 2026-05-06 08:04 | 43.33893 | 10.36630 | 8230 ft | 284 kts | 355° |
| 2026-05-06 08:04 | 43.35778 | 10.36038 | 8115 ft | 278 kts | 327° |
| 2026-05-06 08:04 | 43.37224 | 10.34367 | 7912 ft | 273 kts | 304° |
| 2026-05-06 08:04 | 43.38454 | 10.32346 | 7523 ft | 277 kts | 307° |
| 2026-05-06 08:05 | 43.39762 | 10.30411 | 7129 ft | 276 kts | 309° |
| 2026-05-06 08:05 | 43.41079 | 10.28491 | 6732 ft | 275 kts | 309° |
| 2026-05-06 08:05 | 43.42369 | 10.26563 | 6376 ft | 272 kts | 308° |
| 2026-05-06 08:05 | 43.43628 | 10.24652 | 6004 ft | 267 kts | 308° |
| 2026-05-06 08:06 | 43.44869 | 10.22763 | 5608 ft | 265 kts | 307° |
| 2026-05-06 08:06 | 43.46199 | 10.21001 | 5182 ft | 269 kts | 324° |
| 2026-05-06 08:06 | 43.47972 | 10.20153 | 4793 ft | 274 kts | 355° |
| 2026-05-06 08:06 | 43.49811 | 10.20633 | 4504 ft | 270 kts | 29° |
| 2026-05-06 08:07 | 43.51376 | 10.22014 | 4227 ft | 266 kts | 35° |
| 2026-05-06 08:07 | 43.52893 | 10.23443 | 3909 ft | 262 kts | 36° |
| 2026-05-06 08:07 | 43.54344 | 10.24917 | 3625 ft | 255 kts | 39° |
| 2026-05-06 08:07 | 43.55724 | 10.26369 | 3325 ft | 245 kts | 39° |
| 2026-05-06 08:08 | 43.57046 | 10.27745 | 3148 ft | 230 kts | 38° |
| 2026-05-06 08:08 | 43.58264 | 10.29009 | 3059 ft | 214 kts | 37° |
| 2026-05-06 08:08 | 43.59397 | 10.30166 | 3031 ft | 191 kts | 37° |
| 2026-05-06 08:08 | 43.60424 | 10.31222 | 3011 ft | 181 kts | 37° |
| 2026-05-06 08:09 | 43.61428 | 10.32265 | 3007 ft | 179 kts | 37° |
| 2026-05-06 08:09 | 43.62391 | 10.33257 | 3065 ft | 163 kts | 37° |
| 2026-05-06 08:09 | 43.63309 | 10.34202 | 2757 ft | 167 kts | 37° |
| 2026-05-06 08:09 | 43.64264 | 10.35197 | 2272 ft | 175 kts | 37° |
| 2026-05-06 08:10 | 43.65195 | 10.36183 | 2318 ft | 158 kts | 39° |
| 2026-05-06 08:10 | 43.66095 | 10.37219 | 1943 ft | 198 kts | 39° |
| 2026-05-06 08:10 | 43.67181 | 10.38391 | 2094 ft | 181 kts | 37° |
| 2026-05-06 08:10 | 43.68318 | 10.39413 | 2071 ft | 215 kts | 17° |
| 2026-05-06 08:11 | 43.69757 | 10.39364 | 2065 ft | 212 kts | 328° |
| 2026-05-06 08:11 | 43.70913 | 10.38128 | 2492 ft | 214 kts | 315° |
| 2026-05-06 08:11 | 43.72062 | 10.36748 | 2659 ft | 225 kts | 315° |
| 2026-05-06 08:11 | 43.73239 | 10.35333 | 2580 ft | 223 kts | 315° |
| 2026-05-06 08:12 | 43.74164 | 10.33685 | 2493 ft | 214 kts | 282° |
| 2026-05-06 08:12 | 43.74054 | 10.31719 | 2432 ft | 207 kts | 240° |
| 2026-05-06 08:12 | 43.73215 | 10.30116 | 2390 ft | 206 kts | 227° |
| 2026-05-06 08:12 | 43.72072 | 10.28947 | 2320 ft | 206 kts | 207° |
| 2026-05-06 08:13 | 43.70769 | 10.28079 | 2231 ft | 208 kts | 205° |
| 2026-05-06 08:13 | 43.69454 | 10.27253 | 2105 ft | 208 kts | 204° |
| 2026-05-06 08:13 | 43.68134 | 10.26474 | 2042 ft | 205 kts | 203° |
| 2026-05-06 08:13 | 43.66805 | 10.25700 | 2025 ft | 207 kts | 204° |
| 2026-05-06 08:14 | 43.65486 | 10.24949 | 1996 ft | 204 kts | 203° |
| 2026-05-06 08:14 | 43.64166 | 10.24201 | 1985 ft | 205 kts | 203° |
| 2026-05-06 08:14 | 43.62844 | 10.23451 | 1991 ft | 207 kts | 203° |
| 2026-05-06 08:14 | 43.61522 | 10.22704 | 1989 ft | 205 kts | 203° |
| 2026-05-06 08:15 | 43.60189 | 10.21951 | 1990 ft | 207 kts | 204° |
| 2026-05-06 08:15 | 43.58894 | 10.21122 | 1992 ft | 206 kts | 207° |
| 2026-05-06 08:15 | 43.57627 | 10.20253 | 1996 ft | 205 kts | 208° |
| 2026-05-06 08:15 | 43.56257 | 10.19791 | 1974 ft | 210 kts | 175° |
| 2026-05-06 08:16 | 43.54998 | 10.20734 | 1999 ft | 205 kts | 135° |
| 2026-05-06 08:16 | 43.54172 | 10.22239 | 1998 ft | 190 kts | 123° |
| 2026-05-06 08:16 | 43.53770 | 10.23968 | 2117 ft | 190 kts | 101° |
| 2026-05-06 08:16 | 43.54003 | 10.25868 | 1703 ft | 217 kts | 62° |
| 2026-05-06 08:17 | 43.54927 | 10.27386 | 1813 ft | 203 kts | 45° |
| 2026-05-06 08:17 | 43.56076 | 10.28539 | 1776 ft | 202 kts | 30° |
| 2026-05-06 08:17 | 43.57319 | 10.29435 | 1765 ft | 200 kts | 27° |
| 2026-05-06 08:17 | 43.58506 | 10.30288 | 1786 ft | 180 kts | 26° |
| 2026-05-06 08:18 | 43.59575 | 10.31063 | 1783 ft | 175 kts | 27° |
| 2026-05-06 08:18 | 43.60660 | 10.31881 | 1661 ft | 179 kts | 28° |
| 2026-05-06 08:18 | 43.61736 | 10.32720 | 1438 ft | 173 kts | 30° |
| 2026-05-06 08:18 | 43.62714 | 10.33615 | 1154 ft | 165 kts | 34° |
| 2026-05-06 08:19 | 43.63626 | 10.34515 | 929 ft | 158 kts | 35° |
| 2026-05-06 08:19 | 43.64498 | 10.35407 | 698 ft | 154 kts | 39° |
| 2026-05-06 08:19 | 43.65342 | 10.36289 | 516 ft | 151 kts | 39° |
| 2026-05-06 08:19 | 43.66194 | 10.37158 | 330 ft | 153 kts | 39° |
| 2026-05-06 08:20 | 43.67057 | 10.38059 | 155 ft | 157 kts | 39° |
| 2026-05-06 08:20 | 43.67932 | 10.38957 | 9 ft | 154 kts | 40° |
| 2026-05-06 08:20 | 43.68669 | 10.39733 | 8 ft | 98 kts | 37° |
| 2026-05-06 08:20 | 43.68973 | 10.40038 | 8 ft | 27 kts | 37° |
| 2026-05-06 08:21 | 43.69120 | 10.40192 | 9 ft | 27 kts | 37° |
| 2026-05-06 08:21 | 43.69247 | 10.40300 | 9 ft | 13 kts | 360° |
| 2026-05-06 08:21 | 43.69313 | 10.40232 | 11 ft | 12 kts | 308° |
| 2026-05-06 08:21 | 43.69367 | 10.40138 | 11 ft | 12 kts | 309° |
| 2026-05-06 08:22 | 43.69420 | 10.40098 | 13 ft | 9 kts | 351° |
| 2026-05-06 08:22 | 43.69488 | 10.40085 | 12 ft | 10 kts | 352° |
| 2026-05-06 08:22 | 43.69560 | 10.40071 | 12 ft | 8 kts | 352° |
| 2026-05-06 08:22 | 43.69580 | 10.40067 | 12 ft | 3 kts | 352° |
| 2026-05-06 08:23 | 43.69604 | 10.40063 | 12 ft | 4 kts | 352° |
| 2026-05-06 08:23 | 43.69637 | 10.40056 | 13 ft | 5 kts | 352° |
| 2026-05-06 08:23 | 43.69669 | 10.40043 | 13 ft | 4 kts | 319° |
| 2026-05-06 08:23 | 43.69683 | 10.40002 | 12 ft | 6 kts | 283° |
| 2026-05-06 08:24 | 43.69687 | 10.39989 | 14 ft | 1 kts | 296° |
| 2026-05-06 08:24 | 43.69693 | 10.39981 | 13 ft | 2 kts | 320° |
| 2026-05-06 08:24 | 43.69707 | 10.39972 | 12 ft | 3 kts | 342° |
| 2026-05-06 08:24 | 43.69728 | 10.39970 | 12 ft | 2 kts | 3° |
| 2026-05-06 08:25 | 43.69750 | 10.39974 | 12 ft | 4 kts | 7° |
| 2026-05-06 08:25 | 43.69759 | 10.39975 | 12 ft | 0 kts | 7° |
| 2026-05-06 08:25 | 43.69761 | 10.39976 | 12 ft | 0 kts | 7° |